Latest Weather Observations for Portland Harbour

IDV60801

Issued at 11:32 pm EDT Friday 14 December 2018 (issued every 10 minutes, with the page automatically refreshed every 10 minutes)

About weather observations | Map of weather stations | Latest weather observations for VIC | Other Formats
Station Details ID: 090192 Name: PORTLAND NTC AWS Lat: -38.34 Lon: 141.61 Height: 0.0 m
Data from the previous 72 hours. | See also: Recent months for locations in Victoria
Date/Time
EDT
Temp
°C
App
Temp
°C
Dew
Point
°C
Rel
Hum
%
Delta-T
°C
Wind Press
QNH
hPa
Press
MSL
hPa
Rain since
9am
mm
Dir  Spd
km/h
Gust
km/h
Spd
kts
Gust
kts
14/11:30pm 16.8 - - - - SE 22 41 12 22 1006.9 1006.9 -
14/11:00pm 16.8 - - - - SE 19 41 10 22 1007.6 1007.6 -
14/10:30pm 16.6 - - - - SE 22 39 12 21 1007.7 1007.7 -
14/10:00pm 16.6 - - - - SSE 26 43 14 23 1007.7 1007.7 -
14/09:30pm 16.7 - - - - SE 13 32 7 17 1007.6 1007.6 -
14/09:00pm 16.8 - - - - SE 15 39 8 21 1007.5 1007.5 -
14/08:30pm 17.1 - - - - ESE 15 28 8 15 1007.4 1007.4 -
14/08:00pm 17.1 - - - - ESE 15 28 8 15 1007.2 1007.2 -
14/07:30pm 17.0 - - - - ESE 13 28 7 15 1006.8 1006.8 -
14/07:00pm 16.9 - - - - ESE 17 32 9 17 1006.3 1006.3 -
14/06:30pm 16.9 - - - - ESE 15 32 8 17 1005.5 1005.5 -
14/06:00pm 16.8 - - - - SE 19 39 10 21 1005.3 1005.3 -
14/05:30pm 16.7 - - - - SE 17 35 9 19 1005.5 1005.5 -
14/05:00pm 16.7 - - - - SE 24 39 13 21 1005.7 1005.7 -
14/04:30pm 16.4 - - - - SSE 26 35 14 19 1005.8 1005.8 -
14/04:00pm 16.5 - - - - SSE 26 44 14 24 1006.0 1006.0 -
14/03:59pm 16.4 - - - - SSE 28 46 15 25 1006.0 1006.0 -
14/03:30pm 16.4 - - - - SSE 30 46 16 25 1005.8 1005.8 -
14/03:00pm 16.3 - - - - SSE 33 48 18 26 1005.8 1005.8 -
14/02:30pm 16.3 - - - - SSE 35 52 19 28 1005.5 1005.5 -
14/02:00pm 16.3 - - - - SSE 33 46 18 25 1005.7 1005.7 -
14/01:39pm 16.3 - - - - SSE 33 52 18 28 1005.7 1005.7 -
14/01:30pm 16.3 - - - - SSE 35 48 19 26 1005.9 1005.9 -
14/01:05pm 16.2 - - - - SSE 35 56 19 30 1005.9 1005.9 -
14/01:00pm 16.2 - - - - SSE 35 50 19 27 1006.0 1006.0 -
14/12:30pm 16.1 - - - - SSE 32 48 17 26 1006.2 1006.2 -
14/12:00pm 16.1 - - - - SSE 24 44 13 24 1006.4 1006.4 -
14/11:30am 16.3 - - - - SE 22 39 12 21 1006.3 1006.3 -
14/11:00am 16.3 - - - - SE 22 41 12 22 1006.3 1006.3 -
14/10:30am 16.3 - - - - SE 22 41 12 22 1006.4 1006.4 -
14/10:14am 16.4 - - - - SSE 30 48 16 26 1006.2 1006.2 -
14/10:00am 16.4 - - - - SSE 33 48 18 26 1006.1 1006.1 -
14/09:45am 16.4 - - - - SE 28 48 15 26 1006.3 1006.3 -
14/09:30am 16.5 - - - - SE 24 46 13 25 1006.2 1006.2 -
14/09:00am 16.7 - - - - SE 28 48 15 26 1005.7 1005.7 -
14/08:30am 16.6 - - - - SE 33 52 18 28 1005.0 1005.0 -
14/08:12am 16.6 - - - - SE 28 48 15 26 1004.6 1004.6 -
14/08:00am 16.7 - - - - SE 26 46 14 25 1004.6 1004.6 -
14/07:30am 16.9 - - - - SE 22 50 12 27 1004.5 1004.5 -
14/07:00am 16.8 - - - - SE 26 57 14 31 1004.0 1004.0 -
14/06:30am 16.6 - - - - SE 32 50 17 27 1003.3 1003.3 -
14/06:00am 16.5 - - - - SE 32 59 17 32 1002.8 1002.8 -
14/05:30am 16.6 - - - - SE 28 48 15 26 1002.0 1002.0 -
14/05:00am 16.6 - - - - SE 28 48 15 26 1001.7 1001.7 -
14/04:31am 16.6 - - - - SE 28 46 15 25 1001.2 1001.2 -
14/04:30am 16.6 - - - - SE 28 46 15 25 1001.2 1001.2 -
14/04:00am 16.6 - - - - SE 30 54 16 29 1001.0 1001.0 -
14/03:30am 16.8 - - - - SE 28 52 15 28 1000.8 1000.8 -
14/03:08am 16.8 - - - - SE 30 48 16 26 1000.7 1000.7 -
14/03:00am 16.7 - - - - SSE 33 50 18 27 1000.5 1000.5 -
14/02:30am 16.8 - - - - SSE 44 65 24 35 1000.3 1000.3 -
14/02:00am 16.7 - - - - SSE 48 69 26 37 1000.0 1000.0 -
14/01:30am 16.7 - - - - SSE 50 72 27 39 999.9 999.9 -
14/01:00am 16.5 - - - - SSE 48 67 26 36 999.8 999.8 -
14/12:30am 16.4 - - - - SSE 44 65 24 35 999.8 999.8 -
14/12:00am 16.5 - - - - S 37 57 20 31 999.8 999.8 -
 
Date/Time
EDT
Temp
°C
App
Temp
°C
Dew
Point
°C
Rel
Hum
%
Delta-T
°C
Wind Press
QNH
hPa
Press
MSL
hPa
Rain since
9am
mm
Dir  Spd
km/h
Gust
km/h
Spd
kts
Gust
kts
13/11:30pm 16.9 - - - - S 33 48 18 26 999.8 999.8 -
13/11:00pm 16.8 - - - - S 32 46 17 25 999.9 999.9 -
13/10:30pm 16.7 - - - - S 24 32 13 17 1000.0 1000.0 -
13/10:00pm 16.6 - - - - SSW 17 24 9 13 1000.2 1000.2 -
13/09:30pm 16.5 - - - - S 20 26 11 14 1000.4 1000.4 -
13/09:00pm 16.3 - - - - S 19 26 10 14 1000.3 1000.3 -
13/08:30pm 16.2 - - - - S 24 33 13 18 1000.2 1000.2 -
13/08:00pm 15.9 - - - - SSW 22 30 12 16 1000.0 1000.0 -
13/07:30pm 15.6 - - - - SSW 32 43 17 23 999.7 999.7 -
13/07:00pm 15.3 - - - - SSW 33 44 18 24 999.4 999.4 -
13/06:30pm 15.5 - - - - SSW 35 50 19 27 999.2 999.2 -
13/06:00pm 15.3 - - - - SSW 39 50 21 27 999.3 999.3 -
13/05:30pm 15.3 - - - - SSW 37 52 20 28 999.7 999.7 -
13/05:00pm 15.5 - - - - SSW 41 56 22 30 1000.1 1000.1 -
13/04:30pm 15.8 - - - - SSW 39 52 21 28 999.9 999.9 -
13/04:02pm 16.0 - - - - SSW 39 59 21 32 999.5 999.5 -
13/04:00pm 15.9 - - - - SSW 41 59 22 32 999.5 999.5 -
13/03:30pm 15.9 - - - - SSW 41 54 22 29 999.3 999.3 -
13/03:00pm 15.9 - - - - SSW 39 54 21 29 999.6 999.6 -
13/02:30pm 16.1 - - - - SSW 37 48 20 26 999.9 999.9 -
13/02:09pm 16.1 - - - - S 32 52 17 28 1000.2 1000.2 -
13/02:00pm 16.0 - - - - S 35 48 19 26 1000.4 1000.4 -
13/01:30pm 15.8 - - - - S 35 50 19 27 1000.7 1000.7 -
13/01:00pm 15.7 - - - - S 37 50 20 27 1000.9 1000.9 -
13/12:30pm 16.0 - - - - S 32 44 17 24 1001.3 1001.3 -
13/12:00pm 15.6 - - - - S 33 48 18 26 1001.1 1001.1 -
13/11:31am 15.9 - - - - S 32 52 17 28 1000.9 1000.9 -
13/11:30am 16.1 - - - - S 32 43 17 23 1000.9 1000.9 -
13/11:00am 15.8 - - - - S 28 44 15 24 1000.9 1000.9 -
13/10:30am 15.8 - - - - S 26 33 14 18 1000.8 1000.8 -
13/10:00am 15.8 - - - - SSW 22 30 12 16 1000.5 1000.5 -
13/09:30am 15.8 - - - - S 19 28 10 15 1000.8 1000.8 -
13/09:00am 16.1 - - - - SSW 15 22 8 12 1000.2 1000.2 -
13/08:30am 15.8 - - - - SSW 17 26 9 14 1000.2 1000.2 -
13/08:00am 15.4 - - - - SSW 15 22 8 12 999.6 999.6 -
13/07:30am 14.9 - - - - SSW 20 28 11 15 999.5 999.5 -
13/07:00am 15.3 - - - - SSW 11 15 6 8 999.6 999.6 -
13/06:30am 15.3 - - - - SSW 13 17 7 9 999.7 999.7 -
13/06:00am 15.6 - - - - S 9 17 5 9 999.8 999.8 -
13/05:30am 15.9 - - - - SE 13 19 7 10 999.4 999.4 -
13/05:00am 15.9 - - - - SE 13 20 7 11 999.9 999.9 -
13/04:30am 15.7 - - - - SSE 13 20 7 11 999.1 999.1 -
13/04:00am 16.2 - - - - SSW 7 13 4 7 999.8 999.8 -
13/03:30am 16.2 - - - - S 9 17 5 9 999.8 999.8 -
13/03:00am 16.7 - - - - SSW 26 41 14 22 999.5 999.5 -
13/02:30am 17.2 - - - - SSW 30 44 16 24 999.9 999.9 -
13/02:00am 17.1 - - - - SW 33 44 18 24 999.9 999.9 -
13/01:30am 17.4 - - - - SW 33 48 18 26 999.8 999.8 -
13/01:00am 17.5 - - - - SW 28 43 15 23 1000.0 1000.0 -
13/12:30am 17.8 - - - - WSW 28 43 15 23 1000.1 1000.1 -
13/12:09am 18.3 - - - - W 30 50 16 27 1000.0 1000.0 -
13/12:00am 19.1 - - - - W 37 52 20 28 999.9 999.9 -
 
Date/Time
EDT
Temp
°C
App
Temp
°C
Dew
Point
°C
Rel
Hum
%
Delta-T
°C
Wind Press
QNH
hPa
Press
MSL
hPa
Rain since
9am
mm
Dir  Spd
km/h
Gust
km/h
Spd
kts
Gust
kts
12/11:42pm 20.7 - - - - WNW 32 57 17 31 999.5 999.5 -
12/11:37pm 22.7 - - - - NW 24 48 13 26 999.4 999.4 -
12/11:30pm 22.4 - - - - NNW 22 28 12 15 998.6 998.6 -
12/11:00pm 21.6 - - - - NE 17 22 9 12 998.5 998.5 -
12/10:30pm 21.8 - - - - NE 17 19 9 10 998.9 998.9 -
12/10:00pm 22.3 - - - - NE 24 26 13 14 999.1 999.1 -
12/09:30pm 22.6 - - - - NE 24 28 13 15 999.3 999.3 -
12/09:00pm 22.4 - - - - NE 26 30 14 16 999.3 999.3 -
12/08:30pm 22.6 - - - - ENE 28 33 15 18 999.4 999.4 -
12/08:00pm 22.6 - - - - ENE 26 28 14 15 999.4 999.4 -
12/07:30pm 23.7 - - - - NE 28 32 15 17 999.6 999.6 -
12/07:00pm 23.8 - - - - NE 28 33 15 18 999.7 999.7 -
12/06:30pm 24.3 - - - - NE 33 37 18 20 999.7 999.7 -
12/06:20pm 25.0 - - - - NE 32 37 17 20 999.8 999.8 -
12/06:00pm 23.5 - - - - ENE 13 17 7 9 1000.0 1000.0 -
12/05:30pm 26.9 - - - - NNE 20 28 11 15 1000.6 1000.6 -
12/05:00pm 25.1 - - - - N 7 9 4 5 1001.0 1001.0 -
12/04:30pm 24.2 - - - - N 9 13 5 7 1001.5 1001.5 -
12/04:00pm 24.5 - - - - N 28 32 15 17 1002.1 1002.1 -
12/03:30pm 26.4 - - - - NNW 32 43 17 23 1003.2 1003.2 -
12/03:00pm 28.4 - - - - NNW 39 54 21 29 1002.7 1002.7 -
12/02:30pm 28.3 - - - - N 37 43 20 23 1002.6 1002.6 -
12/02:25pm 28.1 - - - - N 39 48 21 26 1002.6 1002.6 -
12/02:00pm 27.0 - - - - E 13 46 7 25 1003.1 1003.1 -
12/01:30pm 20.6 - - - - ESE 17 20 9 11 1003.7 1003.7 -
12/01:00pm 20.3 - - - - ESE 19 24 10 13 1004.0 1004.0 -
12/12:30pm 20.7 - - - - ESE 15 19 8 10 1004.4 1004.4 -
12/12:00pm 19.9 - - - - SE 13 17 7 9 1004.7 1004.7 -
12/11:30am 19.7 - - - - SE 11 13 6 7 1005.0 1005.0 -
12/11:00am 19.2 - - - - ESE 7 11 4 6 1005.5 1005.5 -
12/10:30am 18.4 - - - - ESE 9 9 5 5 1005.9 1005.9 -
12/10:00am 18.0 - - - - ESE 7 11 4 6 1006.4 1006.4 -
12/09:30am 17.4 - - - - E 6 9 3 5 1006.9 1006.9 -
12/09:00am 17.0 - - - - NE 6 6 3 3 1007.1 1007.1 -
12/08:30am 16.7 - - - - NNE 7 11 4 6 1007.2 1007.2 -
12/08:00am 17.0 - - - - ENE 13 15 7 8 1007.1 1007.1 -
12/07:30am 16.9 - - - - ENE 11 13 6 7 1007.3 1007.3 -
12/07:00am 16.7 - - - - ENE 13 15 7 8 1007.5 1007.5 -
12/06:30am 16.5 - - - - E 13 15 7 8 1007.7 1007.7 -
12/06:00am 16.4 - - - - E 15 17 8 9 1007.8 1007.8 -
12/05:30am 16.7 - - - - E 13 15 7 8 1007.7 1007.7 -
12/05:00am 16.6 - - - - E 11 13 6 7 1007.9 1007.9 -
12/04:30am 16.6 - - - - E 11 13 6 7 1008.1 1008.1 -
12/04:00am 16.6 - - - - E 13 15 7 8 1008.3 1008.3 -
12/03:30am 16.6 - - - - E 13 19 7 10 1008.8 1008.8 -
12/03:00am 16.6 - - - - ENE 13 17 7 9 1009.4 1009.4 -
12/02:30am 16.7 - - - - ENE 13 17 7 9 1009.9 1009.9 -
12/02:00am 16.8 - - - - ENE 13 17 7 9 1010.4 1010.4 -
12/01:30am 16.8 - - - - ENE 13 15 7 8 1010.8 1010.8 -
12/01:00am 17.0 - - - - ENE 13 17 7 9 1011.1 1011.1 -
12/12:30am 16.9 - - - - ENE 9 13 5 7 1011.7 1011.7 -
12/12:00am 16.9 - - - - E 13 15 7 8 1012.1 1012.1 -

Other Formats:

Comma delimited format used in spreadsheet applications
http://www.bom.gov.au/fwo/IDV60801/IDV60801.95826.axf

JavaScript Object Notation format (JSON) in row-major order
http://www.bom.gov.au/fwo/IDV60801/IDV60801.95826.json